Time;durP1;ratioP1;P1;durP2;ratioP2;P2;SDS_P1;SDS_P2;PMS_P1;PMS_P2;Temp;Humidity;BMP_temperature;BMP_pressure;BME280_temperature;BME280_humidity;BME280_pressure;Samples;Min_cycle;Max_cycle;Signal;HPM_P1;HPM_P2
2023/05/17 00:00:42;;;;;;;5.77;2.70;;;8.00;99.90;;;;;;5077187;28;20204;-77
2023/05/17 00:03:10;;;;;;;8.47;3.10;;;8.00;99.90;;;;;;5081955;28;20209;-79
2023/05/17 00:05:38;;;;;;;6.70;2.70;;;8.00;99.90;;;;;;5096402;28;20211;-77
2023/05/17 00:08:06;;;;;;;5.60;2.47;;;8.00;99.90;;;;;;5078287;28;20208;-79
2023/05/17 00:10:34;;;;;;;6.30;2.37;;;8.00;99.90;;;;;;5075152;28;20207;-78
2023/05/17 00:13:02;;;;;;;6.00;2.40;;;7.90;99.90;;;;;;5095283;28;20265;-79
2023/05/17 00:15:32;;;;;;;8.90;2.97;;;8.00;99.90;;;;;;5104817;28;20233;-74
2023/05/17 00:18:00;;;;;;;9.13;2.90;;;7.90;99.90;;;;;;5091925;28;20215;-78
2023/05/17 00:20:29;;;;;;;8.33;2.90;;;7.90;99.90;;;;;;5091894;28;20510;-77
2023/05/17 00:22:57;;;;;;;7.87;2.87;;;7.90;99.90;;;;;;5086979;28;20234;-77
2023/05/17 00:25:25;;;;;;;8.60;2.90;;;7.90;99.90;;;;;;5077103;28;20265;-78
2023/05/17 00:27:53;;;;;;;6.43;2.77;;;7.90;99.90;;;;;;5076061;28;20678;-78
2023/05/17 00:30:21;;;;;;;9.23;2.90;;;7.90;99.90;;;;;;5075789;28;20208;-74
2023/05/17 00:32:51;;;;;;;6.07;2.63;;;7.90;99.90;;;;;;5074255;28;20230;-76
2023/05/17 00:35:19;;;;;;;8.70;2.60;;;7.90;99.90;;;;;;5073776;28;20208;-79
2023/05/17 00:37:47;;;;;;;10.40;2.70;;;7.80;99.90;;;;;;5073785;28;20330;-78
2023/05/17 00:40:17;;;;;;;6.57;2.70;;;7.80;99.90;;;;;;5073266;28;20214;-78
2023/05/17 00:42:45;;;;;;;7.50;2.90;;;7.70;99.90;;;;;;5072985;28;20214;-77
2023/05/17 00:45:13;;;;;;;6.23;2.90;;;7.70;99.90;;;;;;5073852;28;20242;-77
2023/05/17 00:47:41;;;;;;;5.60;2.93;;;7.70;99.90;;;;;;5075904;28;20219;-78
2023/05/17 00:50:11;;;;;;;5.23;2.37;;;7.60;99.90;;;;;;5094488;28;20211;-78
2023/05/17 00:52:39;;;;;;;5.73;2.70;;;7.60;99.90;;;;;;5094205;28;20321;-79
2023/05/17 00:55:08;;;;;;;5.13;2.80;;;7.60;99.90;;;;;;5094396;28;20252;-79
2023/05/17 00:57:36;;;;;;;8.80;2.87;;;7.60;99.90;;;;;;5074917;28;20226;-78
2023/05/17 01:00:05;;;;;;;5.27;2.80;;;7.60;99.90;;;;;;5074464;28;20579;-79
2023/05/17 01:02:33;;;;;;;9.40;3.17;;;7.60;99.90;;;;;;5074473;28;20211;-79
2023/05/17 01:05:06;;;;;;;9.20;2.80;;;7.60;99.90;;;;;;5074412;28;20669;-78
2023/05/17 01:07:35;;;;;;;9.33;2.90;;;7.50;99.90;;;;;;5080156;28;20203;-78
2023/05/17 01:10:04;;;;;;;7.80;2.60;;;7.50;99.90;;;;;;5094445;28;20203;-78
2023/05/17 01:12:43;;;;;;;6.53;2.20;;;7.50;99.90;;;;;;5092591;28;20230;-78
2023/05/17 01:15:15;;;;;;;7.50;2.73;;;7.50;99.90;;;;;;5094862;28;20213;-77
2023/05/17 01:17:54;;;;;;;9.57;3.00;;;7.50;99.90;;;;;;5094461;28;20211;-79
2023/05/17 01:20:28;;;;;;;6.77;2.77;;;7.40;99.90;;;;;;5087369;28;20754;-77
2023/05/17 01:23:11;;;;;;;6.90;2.50;;;7.40;99.90;;;;;;5073683;28;20209;-78
2023/05/17 01:25:55;;;;;;;6.97;2.70;;;7.40;99.90;;;;;;5074095;28;20264;-77
2023/05/17 01:28:25;;;;;;;7.73;2.80;;;7.30;99.90;;;;;;5073906;28;20207;-77
2023/05/17 01:30:55;;;;;;;7.50;2.40;;;7.30;99.90;;;;;;5073897;28;20257;-79
2023/05/17 01:33:23;;;;;;;7.07;2.70;;;7.40;99.90;;;;;;5074026;28;20265;-78
2023/05/17 01:35:52;;;;;;;7.03;2.70;;;7.40;99.90;;;;;;5073964;28;20211;-78
2023/05/17 01:38:20;;;;;;;6.00;2.40;;;7.30;99.90;;;;;;5074058;28;20227;-79
2023/05/17 01:40:52;;;;;;;6.43;2.60;;;7.40;99.90;;;;;;5073119;28;20207;-78
2023/05/17 01:43:26;;;;;;;10.07;2.67;;;7.30;99.90;;;;;;5073378;28;20208;-78
2023/05/17 01:46:05;;;;;;;6.30;2.70;;;7.30;99.90;;;;;;5073854;28;20211;-80
2023/05/17 01:48:39;;;;;;;6.73;2.73;;;7.30;99.90;;;;;;5073068;28;20245;-80
2023/05/17 01:51:11;;;;;;;7.33;2.43;;;7.30;99.90;;;;;;5073421;28;20214;-80
2023/05/17 01:53:46;;;;;;;8.40;2.90;;;7.30;99.90;;;;;;5084029;28;20313;-78
2023/05/17 01:56:19;;;;;;;7.33;2.70;;;7.30;99.90;;;;;;5091292;28;20209;-80
2023/05/17 01:58:50;;;;;;;6.13;2.63;;;7.30;99.90;;;;;;5085566;28;20203;-79
2023/05/17 02:01:21;;;;;;;7.77;2.60;;;7.30;99.90;;;;;;5077522;28;20238;-80
2023/05/17 02:03:50;;;;;;;8.80;2.93;;;7.30;99.90;;;;;;5077213;28;20561;-76
2023/05/17 02:06:18;;;;;;;7.03;2.60;;;7.30;99.90;;;;;;5077634;28;20203;-79
2023/05/17 02:08:46;;;;;;;9.53;3.37;;;7.30;99.90;;;;;;5083689;28;20302;-77
2023/05/17 02:11:14;;;;;;;8.73;2.67;;;7.20;99.90;;;;;;5097468;28;20215;-79
2023/05/17 02:13:42;;;;;;;9.87;2.60;;;7.20;99.90;;;;;;5096977;28;20656;-79
2023/05/17 02:16:11;;;;;;;9.67;3.03;;;7.20;99.90;;;;;;5095232;28;20240;-79
2023/05/17 02:18:40;;;;;;;6.90;2.50;;;7.30;99.90;;;;;;5077110;28;20243;-79
2023/05/17 02:21:08;;;;;;;7.40;2.50;;;7.30;99.90;;;;;;5076869;28;20231;-79
2023/05/17 02:23:36;;;;;;;5.13;2.67;;;7.30;99.90;;;;;;5076790;28;20599;-79
2023/05/17 02:26:05;;;;;;;5.73;2.70;;;7.20;99.90;;;;;;5076396;28;20211;-79
2023/05/17 02:28:33;;;;;;;7.40;3.10;;;7.20;99.90;;;;;;5075877;28;20261;-77
2023/05/17 02:31:01;;;;;;;5.73;2.57;;;7.20;99.90;;;;;;5076479;28;20211;-79
2023/05/17 02:33:30;;;;;;;7.17;2.63;;;7.20;99.90;;;;;;5075474;28;20224;-79
2023/05/17 02:35:58;;;;;;;6.93;2.67;;;7.20;99.90;;;;;;5076243;28;20226;-79
2023/05/17 02:38:26;;;;;;;7.37;2.23;;;7.20;99.90;;;;;;5076581;28;20261;-78
2023/05/17 02:40:54;;;;;;;9.77;2.87;;;7.20;99.90;;;;;;5076026;28;20210;-77
2023/05/17 02:43:22;;;;;;;7.53;2.60;;;7.20;99.90;;;;;;5076451;28;20626;-76
2023/05/17 02:45:50;;;;;;;7.73;2.83;;;7.20;99.90;;;;;;5076971;28;20242;-75
2023/05/17 02:48:18;;;;;;;8.43;2.57;;;7.20;99.90;;;;;;5081027;28;20211;-77
2023/05/17 02:50:48;;;;;;;5.13;2.20;;;7.20;99.90;;;;;;5083759;28;20234;-75
2023/05/17 02:53:16;;;;;;;6.93;2.70;;;7.20;99.90;;;;;;5077120;28;20229;-78
2023/05/17 02:55:44;;;;;;;8.53;2.50;;;7.20;99.90;;;;;;5076652;28;20208;-75
2023/05/17 02:58:12;;;;;;;6.63;2.40;;;7.20;99.90;;;;;;5076696;28;20250;-74
2023/05/17 03:00:44;;;;;;;5.47;2.30;;;7.20;99.90;;;;;;5076020;28;20295;-79
2023/05/17 03:03:12;;;;;;;7.57;2.50;;;7.20;99.90;;;;;;5075893;28;20261;-79
2023/05/17 03:05:40;;;;;;;6.50;3.00;;;7.10;99.90;;;;;;5075860;28;20246;-79
2023/05/17 03:08:09;;;;;;;9.97;2.70;;;7.10;99.90;;;;;;5078846;28;20669;-78
2023/05/17 03:10:37;;;;;;;7.37;2.50;;;7.10;99.90;;;;;;5075188;28;20261;-79
2023/05/17 03:13:06;;;;;;;8.17;2.60;;;7.10;99.90;;;;;;5075601;28;20293;-79
2023/05/17 03:15:34;;;;;;;6.80;2.40;;;7.10;99.90;;;;;;5075888;28;20337;-79
2023/05/17 03:18:02;;;;;;;7.50;2.27;;;7.10;99.90;;;;;;5091061;28;20211;-78
2023/05/17 03:20:30;;;;;;;5.10;2.40;;;7.10;99.90;;;;;;5095592;28;20720;-79
2023/05/17 03:22:58;;;;;;;7.13;2.13;;;7.00;99.90;;;;;;5095704;28;20210;-77
2023/05/17 03:25:27;;;;;;;5.23;2.27;;;7.00;99.90;;;;;;5087778;28;20422;-79
2023/05/17 03:27:56;;;;;;;6.50;2.37;;;7.00;99.90;;;;;;5075843;28;20553;-80
2023/05/17 03:30:24;;;;;;;6.50;2.20;;;7.00;99.90;;;;;;5075399;28;20290;-79
2023/05/17 03:32:53;;;;;;;7.43;2.10;;;7.00;99.90;;;;;;5074700;28;20278;-79
2023/05/17 03:35:21;;;;;;;8.27;2.30;;;7.00;99.90;;;;;;5075239;28;20743;-79
2023/05/17 03:37:49;;;;;;;6.80;2.20;;;7.00;99.90;;;;;;5085865;28;20560;-79
2023/05/17 03:40:17;;;;;;;5.33;2.00;;;7.00;99.90;;;;;;5093429;28;20237;-79
2023/05/17 03:42:47;;;;;;;4.93;2.07;;;7.00;99.90;;;;;;5074997;28;20260;-78
2023/05/17 03:45:15;;;;;;;5.33;2.30;;;7.00;99.90;;;;;;5075227;28;20243;-79
2023/05/17 03:47:43;;;;;;;7.83;2.40;;;7.00;99.90;;;;;;5075224;28;20215;-79
2023/05/17 03:50:11;;;;;;;7.03;2.40;;;7.00;99.90;;;;;;5076180;28;20211;-79
2023/05/17 03:52:40;;;;;;;5.37;2.10;;;6.90;99.90;;;;;;5075029;28;20550;-78
2023/05/17 03:55:09;;;;;;;4.23;1.97;;;6.90;99.90;;;;;;5075788;28;20215;-79
2023/05/17 03:57:37;;;;;;;5.23;2.13;;;6.90;99.90;;;;;;5095174;28;20248;-78
2023/05/17 04:00:10;;;;;;;7.40;2.30;;;6.90;99.90;;;;;;5079425;28;20252;-79
2023/05/17 04:02:38;;;;;;;6.57;2.40;;;6.90;99.90;;;;;;5075240;28;20669;-78
2023/05/17 04:05:07;;;;;;;5.17;2.00;;;6.90;99.90;;;;;;5076917;28;20203;-77
2023/05/17 04:07:35;;;;;;;7.07;2.17;;;6.90;99.90;;;;;;5080901;28;20218;-76
2023/05/17 04:10:04;;;;;;;5.47;1.97;;;6.80;99.90;;;;;;5075182;28;20288;-79
2023/05/17 04:12:32;;;;;;;7.07;2.20;;;6.90;99.90;;;;;;5074506;28;20273;-77
2023/05/17 04:15:00;;;;;;;8.37;2.40;;;6.90;99.90;;;;;;5074317;28;20288;-79
2023/05/17 04:17:30;;;;;;;5.23;2.03;;;6.90;99.90;;;;;;5074620;28;20241;-79
2023/05/17 04:19:58;;;;;;;4.43;2.10;;;6.90;99.90;;;;;;5074193;28;20281;-78
2023/05/17 04:22:28;;;;;;;5.77;2.00;;;6.90;99.90;;;;;;5074643;28;20216;-80
2023/05/17 04:24:56;;;;;;;4.73;2.00;;;6.90;99.90;;;;;;5074074;28;20227;-79
2023/05/17 04:27:24;;;;;;;4.93;1.90;;;6.90;99.90;;;;;;5074189;28;20214;-79
2023/05/17 04:29:52;;;;;;;7.57;2.03;;;6.80;99.90;;;;;;5090364;28;20202;-79
2023/05/17 04:32:20;;;;;;;4.33;1.80;;;6.80;99.90;;;;;;5082557;28;20256;-79
2023/05/17 04:34:50;;;;;;;5.17;2.13;;;6.90;99.90;;;;;;5094219;28;20654;-79
2023/05/17 04:37:18;;;;;;;7.03;2.13;;;6.90;99.90;;;;;;5094331;28;20190;-75
2023/05/17 04:39:47;;;;;;;5.67;1.90;;;6.90;99.90;;;;;;5093437;28;20194;-79
2023/05/17 04:42:15;;;;;;;8.30;2.37;;;6.90;99.90;;;;;;5090966;28;20234;-79
2023/05/17 04:44:44;;;;;;;11.10;2.30;;;6.90;99.90;;;;;;5093394;28;20241;-78
2023/05/17 04:47:12;;;;;;;3.13;1.80;;;7.00;99.90;;;;;;5091475;28;20206;-80
2023/05/17 04:49:40;;;;;;;3.57;1.80;;;7.00;99.90;;;;;;5091346;28;20198;-80
2023/05/17 04:52:10;;;;;;;6.77;1.93;;;7.10;99.90;;;;;;5093382;28;20974;-78
2023/05/17 04:54:38;;;;;;;8.43;2.07;;;7.10;99.90;;;;;;5094035;28;20257;-76
2023/05/17 04:57:06;;;;;;;7.20;2.13;;;7.10;99.90;;;;;;5093405;28;20199;-79
2023/05/17 04:59:34;;;;;;;4.80;2.10;;;7.20;99.90;;;;;;5077620;28;20211;-79
2023/05/17 05:02:02;;;;;;;9.50;1.97;;;7.30;99.90;;;;;;5093712;28;20259;-77
2023/05/17 05:04:30;;;;;;;6.20;2.30;;;7.40;99.90;;;;;;5093681;28;20203;-79
2023/05/17 05:06:58;;;;;;;4.53;1.93;;;7.40;99.90;;;;;;5073662;28;20265;-80
2023/05/17 05:09:28;;;;;;;4.87;2.03;;;7.50;99.90;;;;;;5073692;28;20207;-80
2023/05/17 05:11:56;;;;;;;5.10;2.13;;;7.50;99.90;;;;;;5073712;28;20219;-75
2023/05/17 05:14:24;;;;;;;5.27;2.10;;;7.60;99.90;;;;;;5073611;28;20239;-79
2023/05/17 05:16:52;;;;;;;5.13;2.17;;;7.70;99.90;;;;;;5073727;28;20555;-76
2023/05/17 05:19:20;;;;;;;7.37;2.27;;;7.60;99.90;;;;;;5072798;28;20261;-74
2023/05/17 05:21:48;;;;;;;3.67;1.87;;;7.70;99.90;;;;;;5073226;28;20231;-78
2023/05/17 05:24:16;;;;;;;7.10;2.27;;;7.70;99.90;;;;;;5073437;28;20238;-80
2023/05/17 05:26:46;;;;;;;6.43;2.07;;;7.80;99.90;;;;;;5073546;28;20211;-79
2023/05/17 05:29:14;;;;;;;10.63;2.20;;;7.80;99.90;;;;;;5072663;28;20211;-78
2023/05/17 05:31:42;;;;;;;6.40;2.00;;;7.80;99.90;;;;;;5072912;28;20216;-78
2023/05/17 05:34:10;;;;;;;6.37;1.90;;;7.90;99.90;;;;;;5072967;28;20590;-79
2023/05/17 05:36:39;;;;;;;6.53;2.20;;;7.80;99.90;;;;;;5073344;28;20641;-79
2023/05/17 05:39:07;;;;;;;9.60;1.97;;;7.90;99.90;;;;;;5073026;28;20665;-78
2023/05/17 05:41:36;;;;;;;7.70;2.13;;;7.90;99.90;;;;;;5073297;28;20254;-77
2023/05/17 05:44:05;;;;;;;6.70;2.00;;;8.10;99.90;;;;;;5072441;28;20211;-74
2023/05/17 05:46:34;;;;;;;6.37;2.10;;;8.20;99.90;;;;;;5073085;28;20780;-79
2023/05/17 05:49:02;;;;;;;7.17;2.30;;;8.30;99.90;;;;;;5072976;28;20204;-78
2023/05/17 05:51:30;;;;;;;5.90;2.10;;;8.20;99.90;;;;;;5073033;28;20235;-76
2023/05/17 05:53:58;;;;;;;5.20;2.30;;;8.20;99.90;;;;;;5071899;28;20212;-77
2023/05/17 05:56:26;;;;;;;9.40;1.93;;;8.20;99.90;;;;;;5072634;28;20204;-79
2023/05/17 05:58:55;;;;;;;7.23;1.93;;;8.60;99.90;;;;;;5073109;28;20222;-74
2023/05/17 06:01:25;;;;;;;9.23;1.90;;;9.10;99.90;;;;;;5072806;28;20288;-78
2023/05/17 06:03:53;;;;;;;5.43;1.80;;;9.60;99.90;;;;;;5092514;28;20272;-76
2023/05/17 06:06:21;;;;;;;4.57;1.53;;;10.00;99.90;;;;;;5093528;28;20218;-75
2023/05/17 06:08:49;;;;;;;6.23;1.80;;;10.40;99.90;;;;;;5093835;28;20210;-77
2023/05/17 06:11:19;;;;;;;5.07;1.80;;;10.80;99.90;;;;;;5084226;28;20269;-78
2023/05/17 06:13:47;;;;;;;6.53;1.83;;;10.60;99.90;;;;;;5091739;28;20267;-76
2023/05/17 06:16:17;;;;;;;4.33;1.80;;;11.00;99.90;;;;;;5079439;28;20211;-75
2023/05/17 06:18:47;;;;;;;5.70;1.73;;;11.00;99.90;;;;;;5092307;28;20244;-75
2023/05/17 06:21:18;;;;;;;4.70;1.60;;;11.00;99.90;;;;;;5091676;28;20318;-75
2023/05/17 06:23:46;;;;;;;6.03;1.90;;;11.40;99.90;;;;;;5093293;28;20301;-75
2023/05/17 06:26:14;;;;;;;3.47;1.40;;;12.00;99.90;;;;;;5089924;28;20198;-74
2023/05/17 06:28:42;;;;;;;5.07;1.70;;;11.60;99.90;;;;;;5073043;28;20303;-76
2023/05/17 06:31:10;;;;;;;4.03;1.77;;;11.60;99.90;;;;;;5072546;28;20617;-78
2023/05/17 06:33:38;;;;;;;6.13;1.93;;;10.60;99.90;;;;;;5072284;28;20246;-76
2023/05/17 06:36:08;;;;;;;6.97;2.10;;;10.40;99.90;;;;;;5072383;28;20811;-76
2023/05/17 06:38:37;;;;;;;4.20;1.40;;;10.20;99.90;;;;;;5072766;28;20216;-75
2023/05/17 06:41:05;;;;;;;3.73;1.60;;;10.00;99.90;;;;;;5072946;28;20279;-76
2023/05/17 06:43:33;;;;;;;3.63;1.60;;;10.30;99.90;;;;;;5072083;28;20216;-77
2023/05/17 06:46:04;;;;;;;5.27;1.30;;;10.50;99.90;;;;;;5076089;28;20253;-74
2023/05/17 06:48:32;;;;;;;5.70;1.50;;;10.50;99.90;;;;;;5076482;28;20214;-76
2023/05/17 06:51:00;;;;;;;4.27;1.50;;;10.20;99.90;;;;;;5076249;28;20230;-78
2023/05/17 06:53:30;;;;;;;3.03;1.77;;;10.40;99.90;;;;;;5075907;28;20203;-76
2023/05/17 06:55:58;;;;;;;4.23;1.33;;;10.40;99.90;;;;;;5076039;28;20314;-78
2023/05/17 06:58:26;;;;;;;1.93;1.30;;;10.80;99.90;;;;;;5091949;28;20203;-74
2023/05/17 07:00:54;;;;;;;6.33;2.00;;;10.30;99.90;;;;;;5095948;28;20233;-78
2023/05/17 07:03:22;;;;;;;3.40;1.77;;;10.00;99.90;;;;;;5096249;28;20302;-74
2023/05/17 07:05:51;;;;;;;6.40;1.87;;;10.20;99.90;;;;;;5095102;28;20199;-77
2023/05/17 07:08:19;;;;;;;5.00;1.50;;;10.20;99.90;;;;;;5096481;28;20691;-77
2023/05/17 07:10:51;;;;;;;6.53;1.60;;;10.30;99.90;;;;;;5096511;28;20325;-75
2023/05/17 07:13:19;;;;;;;5.27;1.50;;;10.30;99.90;;;;;;5096031;28;20668;-74
2023/05/17 07:15:47;;;;;;;6.03;1.60;;;10.40;99.90;;;;;;5092755;28;20218;-75
2023/05/17 07:18:16;;;;;;;5.30;1.70;;;10.80;99.90;;;;;;5076020;28;20552;-78
2023/05/17 07:20:44;;;;;;;4.73;1.80;;;10.70;99.90;;;;;;5075885;28;20319;-75
2023/05/17 07:23:13;;;;;;;4.27;1.87;;;10.80;99.90;;;;;;5075672;28;20207;-77
2023/05/17 07:25:41;;;;;;;7.20;1.63;;;11.10;99.90;;;;;;5076310;28;20216;-79
2023/05/17 07:28:11;;;;;;;6.50;1.73;;;11.20;99.90;;;;;;5076016;28;20633;-76
2023/05/17 07:30:39;;;;;;;4.87;1.57;;;11.90;99.90;;;;;;5075667;28;20207;-75
2023/05/17 07:33:07;;;;;;;6.13;1.73;;;11.80;99.90;;;;;;5075405;28;20203;-75
2023/05/17 07:35:36;;;;;;;4.10;1.70;;;12.10;99.90;;;;;;5075593;28;20228;-76
2023/05/17 07:38:04;;;;;;;5.90;1.70;;;12.00;99.90;;;;;;5075292;28;20238;-77
2023/05/17 07:40:32;;;;;;;7.03;1.77;;;12.00;99.90;;;;;;5077053;28;20204;-76
2023/05/17 07:43:00;;;;;;;3.47;1.60;;;12.30;99.90;;;;;;5076430;28;20207;-77
2023/05/17 07:45:30;;;;;;;6.10;1.80;;;12.20;99.90;;;;;;5076167;28;20239;-74
2023/05/17 07:47:58;;;;;;;3.20;1.50;;;12.60;99.90;;;;;;5075776;28;20662;-78
2023/05/17 07:50:27;;;;;;;6.13;1.67;;;12.60;99.90;;;;;;5074905;28;20273;-76
2023/05/17 07:52:56;;;;;;;6.10;1.73;;;12.80;99.90;;;;;;5075402;28;20261;-76
2023/05/17 07:55:24;;;;;;;3.97;1.57;;;14.00;99.90;;;;;;5075051;28;20231;-75
2023/05/17 07:57:53;;;;;;;3.77;1.40;;;14.80;99.90;;;;;;5075803;28;20353;-76
2023/05/17 08:00:22;;;;;;;5.73;1.87;;;14.60;99.90;;;;;;5089912;28;20207;-75
2023/05/17 08:02:52;;;;;;;4.67;1.60;;;14.70;99.90;;;;;;5094559;28;20786;-74
2023/05/17 08:05:20;;;;;;;7.27;1.97;;;14.80;99.90;;;;;;5094658;28;20251;-77
2023/05/17 08:07:49;;;;;;;3.30;1.50;;;15.30;99.90;;;;;;5082711;28;20296;-77
2023/05/17 08:10:17;;;;;;;4.67;1.53;;;15.80;99.90;;;;;;5074476;28;20597;-73
2023/05/17 08:12:46;;;;;;;3.17;1.40;;;16.00;99.90;;;;;;5075290;28;20545;-75
2023/05/17 08:15:14;;;;;;;4.73;1.40;;;15.10;99.90;;;;;;5074587;28;20611;-76
2023/05/17 08:17:42;;;;;;;6.70;1.83;;;15.70;99.90;;;;;;5094048;28;20215;-79
2023/05/17 08:20:14;;;;;;;4.70;1.47;;;17.10;98.70;;;;;;5093789;28;20233;-75
2023/05/17 08:22:42;;;;;;;4.93;1.60;;;18.00;95.80;;;;;;5093648;28;20207;-76
2023/05/17 08:25:10;;;;;;;3.67;1.50;;;17.30;96.10;;;;;;5077258;28;20211;-76
2023/05/17 08:27:39;;;;;;;7.97;1.80;;;17.50;93.00;;;;;;5073796;28;20203;-78
2023/05/17 08:30:08;;;;;;;5.37;1.53;;;18.90;92.40;;;;;;5073461;28;20265;-79
2023/05/17 08:32:43;;;;;;;4.60;1.57;;;19.10;82.70;;;;;;5073421;28;20294;-78
2023/05/17 08:35:13;;;;;;;4.82;1.55;;;19.60;82.10;;;;;;5073018;28;20215;-77
2023/05/17 08:37:42;;;;;;;2.42;1.60;;;20.70;73.00;;;;;;5073003;28;20212;-79
2023/05/17 08:40:11;;;;;;;5.35;1.95;;;21.30;79.30;;;;;;5071357;28;20685;-79
2023/05/17 08:42:39;;;;;;;5.90;1.70;;;21.50;65.90;;;;;;5086670;28;20550;-80
2023/05/17 08:45:09;;;;;;;3.83;1.60;;;21.30;69.50;;;;;;5091108;28;20711;-78
2023/05/17 08:47:39;;;;;;;5.47;1.90;;;20.30;74.80;;;;;;5091036;28;20596;-80
2023/05/17 08:50:07;;;;;;;4.07;1.70;;;19.50;71.10;;;;;;5087161;28;20207;-81
2023/05/17 08:52:37;;;;;;;4.70;1.40;;;20.30;75.90;;;;;;5072115;28;20226;-78
2023/05/17 08:55:07;;;;;;;4.78;1.63;;;18.90;69.30;;;;;;5072495;28;20203;-75
2023/05/17 08:57:37;;;;;;;3.22;1.58;;;18.90;74.70;;;;;;5072913;28;20662;-78
2023/05/17 09:00:11;;;;;;;4.47;1.58;;;19.00;75.90;;;;;;5088288;28;20203;-78
2023/05/17 09:02:39;;;;;;;5.45;1.75;;;19.20;70.20;;;;;;5075091;28;20302;-79
2023/05/17 09:05:09;;;;;;;3.85;1.58;;;19.60;70.30;;;;;;5076757;28;20296;-77
2023/05/17 09:07:39;;;;;;;7.13;1.65;;;19.80;66.40;;;;;;5092606;28;20233;-79
2023/05/17 09:10:08;;;;;;;5.00;1.80;;;19.10;66.30;;;;;;5080210;28;20220;-78
2023/05/17 09:12:36;;;;;;;4.07;2.10;;;18.10;72.00;;;;;;5072667;28;20215;-79
2023/05/17 09:15:14;;;;;;;3.53;1.60;;;18.70;72.70;;;;;;5072355;28;20677;-78
2023/05/17 09:17:43;;;;;;;6.40;1.70;;;20.10;60.00;;;;;;5072881;28;20226;-78
2023/05/17 09:20:11;;;;;;;4.38;1.70;;;19.80;65.00;;;;;;5073065;28;20281;-77
2023/05/17 09:22:41;;;;;;;4.88;1.60;;;20.20;62.40;;;;;;5071899;28;20256;-78
2023/05/17 09:25:10;;;;;;;7.17;1.90;;;18.90;64.30;;;;;;5072314;28;20559;-79
2023/05/17 09:27:38;;;;;;;7.20;1.95;;;19.40;67.50;;;;;;5071332;28;20293;-79
2023/05/17 09:30:10;;;;;;;4.18;1.70;;;19.20;67.90;;;;;;5072414;28;20229;-80
2023/05/17 09:32:44;;;;;;;3.85;1.65;;;19.40;68.00;;;;;;5072177;28;20284;-80
2023/05/17 09:35:13;;;;;;;4.70;1.90;;;19.90;71.10;;;;;;5072844;28;20261;-78
2023/05/17 09:37:45;;;;;;;4.10;1.70;;;18.60;67.30;;;;;;5072431;28;20231;-80
2023/05/17 09:40:23;;;;;;;5.28;1.75;;;20.70;73.20;;;;;;5072477;28;20313;-81
2023/05/17 09:42:52;;;;;;;4.97;1.70;;;21.50;68.50;;;;;;5071683;28;20211;-79
2023/05/17 09:45:23;;;;;;;4.72;1.80;;;20.20;66.50;;;;;;5084396;28;20214;-83
2023/05/17 09:47:52;;;;;;;4.55;1.75;;;21.80;72.00;;;;;;5091911;28;20271;-83
2023/05/17 09:50:21;;;;;;;3.38;1.58;;;23.40;59.00;;;;;;5092061;28;20214;-81
2023/05/17 09:52:54;;;;;;;4.50;1.88;;;23.90;61.60;;;;;;5083825;28;20226;-82
2023/05/17 09:55:27;;;;;;;6.63;1.85;;;23.60;58.20;;;;;;5072134;28;20203;-83
2023/05/17 09:58:03;;;;;;;4.47;1.77;;;22.30;58.80;;;;;;5081587;28;20253;-80
2023/05/17 10:00:32;;;;;;;5.60;2.00;;;20.40;65.40;;;;;;5091271;28;20615;-79
2023/05/17 10:03:02;;;;;;;5.50;2.23;;;19.60;65.70;;;;;;5092410;28;20234;-78
2023/05/17 10:05:30;;;;;;;4.73;1.90;;;19.00;67.50;;;;;;5093378;28;20613;-80
2023/05/17 10:08:00;;;;;;;4.47;1.80;;;17.80;74.70;;;;;;5093468;28;20293;-79
2023/05/17 10:10:29;;;;;;;5.07;1.70;;;18.00;76.70;;;;;;5073453;28;20212;-79
2023/05/17 10:12:58;;;;;;;4.13;1.80;;;18.40;76.10;;;;;;5072199;28;20203;-79
2023/05/17 10:15:27;;;;;;;4.37;1.80;;;18.40;78.50;;;;;;5072173;28;20207;-79
2023/05/17 10:17:56;;;;;;;6.37;2.00;;;18.60;80.70;;;;;;5072372;28;20234;-79
2023/05/17 10:20:24;;;;;;;7.00;2.00;;;18.50;79.40;;;;;;5075974;28;20261;-77
2023/05/17 10:22:53;;;;;;;5.30;2.00;;;17.80;83.50;;;;;;5075828;28;20211;-77
2023/05/17 10:25:25;;;;;;;5.50;2.20;;;17.90;79.10;;;;;;5076509;28;20203;-77
2023/05/17 10:27:53;;;;;;;7.07;2.23;;;17.50;82.20;;;;;;5077063;28;20673;-79
2023/05/17 10:30:23;;;;;;;7.20;2.10;;;17.00;82.20;;;;;;5076334;28;20203;-75
2023/05/17 10:32:51;;;;;;;8.30;2.33;;;16.20;88.30;;;;;;5076085;28;20211;-77
2023/05/17 10:35:20;;;;;;;4.70;2.03;;;15.70;91.30;;;;;;5083301;28;20560;-76
2023/05/17 10:37:49;;;;;;;5.07;2.07;;;15.30;90.00;;;;;;5096414;28;20645;-79
2023/05/17 10:40:18;;;;;;;5.30;2.40;;;14.60;93.30;;;;;;5096958;28;20268;-78
2023/05/17 10:42:51;;;;;;;4.63;2.03;;;14.50;95.70;;;;;;5096320;28;20545;-77
2023/05/17 10:45:21;;;;;;;4.33;2.20;;;14.30;96.60;;;;;;5096199;28;20577;-78
2023/05/17 10:47:51;;;;;;;9.27;3.00;;;13.80;97.20;;;;;;5096769;28;20203;-78
2023/05/17 10:50:23;;;;;;;11.20;3.83;;;13.70;99.20;;;;;;5096834;28;20203;-78
2023/05/17 10:52:54;;;;;;;5.20;2.60;;;13.40;99.90;;;;;;5095559;28;20231;-78
2023/05/17 10:55:25;;;;;;;7.07;2.80;;;13.50;99.90;;;;;;5096494;28;20207;-75
2023/05/17 10:58:14;;;;;;;5.20;2.30;;;13.30;99.90;;;;;;5076313;28;20220;-75
2023/05/17 11:00:44;;;;;;;5.77;2.20;;;13.90;99.90;;;;;;5075934;28;20653;-78
2023/05/17 11:03:15;;;;;;;6.23;2.27;;;14.70;99.90;;;;;;5075563;28;20208;-77
2023/05/17 11:05:45;;;;;;;6.90;2.33;;;15.40;98.00;;;;;;5076299;28;20253;-79
2023/05/17 11:08:16;;;;;;;5.33;2.60;;;16.00;96.70;;;;;;5076275;28;20269;-78
2023/05/17 11:11:10;;;;;;;7.47;2.50;;;15.60;97.10;;;;;;5075949;28;20215;-77
2023/05/17 11:13:50;;;;;;;5.23;2.47;;;15.40;95.40;;;;;;5075988;28;20211;-74
2023/05/17 11:16:22;;;;;;;4.87;2.30;;;14.80;94.90;;;;;;5076247;28;20264;-78
2023/05/17 11:18:52;;;;;;;5.33;2.50;;;14.30;97.80;;;;;;5075915;28;20224;-75
2023/05/17 11:21:21;;;;;;;6.07;2.50;;;13.80;99.00;;;;;;5076005;28;20251;-78
2023/05/17 11:23:55;;;;;;;5.70;2.40;;;13.80;99.90;;;;;;5075861;28;20284;-77
2023/05/17 11:26:32;;;;;;;6.33;2.77;;;13.70;99.90;;;;;;5075834;28;20211;-75
2023/05/17 11:29:06;;;;;;;6.07;2.20;;;13.50;99.20;;;;;;5075914;28;20191;-75
2023/05/17 11:31:36;;;;;;;4.93;2.33;;;13.50;98.80;;;;;;5075313;28;20212;-77
2023/05/17 11:34:04;;;;;;;5.03;2.40;;;14.10;99.90;;;;;;5075915;28;20215;-75
2023/05/17 11:36:49;;;;;;;5.03;2.27;;;14.20;99.90;;;;;;5076070;28;20670;-75
2023/05/17 11:39:20;;;;;;;5.00;2.30;;;14.30;98.20;;;;;;5076337;28;20203;-76
2023/05/17 11:41:50;;;;;;;5.17;2.20;;;14.00;98.30;;;;;;5075947;28;20610;-77
2023/05/17 11:44:25;;;;;;;7.33;2.47;;;13.70;97.20;;;;;;5076045;28;20261;-78
2023/05/17 11:47:02;;;;;;;4.93;2.00;;;13.50;96.00;;;;;;5075442;28;20207;-77
2023/05/17 11:49:32;;;;;;;5.07;2.30;;;13.40;99.40;;;;;;5075593;28;20237;-75
2023/05/17 11:52:03;;;;;;;4.90;2.10;;;13.10;98.00;;;;;;5074974;28;20207;-77
2023/05/17 11:54:32;;;;;;;4.00;1.90;;;13.40;98.50;;;;;;5079705;28;20203;-77
2023/05/17 11:57:02;;;;;;;4.70;1.90;;;13.20;92.90;;;;;;5095752;28;20207;-76
2023/05/17 11:59:38;;;;;;;5.53;1.73;;;13.60;95.40;;;;;;5096078;28;20211;-75
2023/05/17 12:02:07;;;;;;;4.33;1.87;;;14.10;95.00;;;;;;5075060;28;20620;-78
2023/05/17 12:04:37;;;;;;;5.63;2.03;;;14.60;92.40;;;;;;5075148;28;20215;-77
2023/05/17 12:07:09;;;;;;;4.40;1.60;;;14.40;92.00;;;;;;5075464;28;20246;-76
2023/05/17 12:09:38;;;;;;;4.80;1.80;;;14.70;91.40;;;;;;5075620;28;20291;-77
2023/05/17 12:12:07;;;;;;;3.77;1.67;;;15.60;84.70;;;;;;5075943;28;20215;-77
2023/05/17 12:14:37;;;;;;;3.50;1.57;;;15.60;80.70;;;;;;5075529;28;20253;-76
2023/05/17 12:17:09;;;;;;;5.07;1.67;;;15.70;84.30;;;;;;5076075;28;20210;-77
2023/05/17 12:19:37;;;;;;;3.77;1.80;;;16.40;75.30;;;;;;5075220;28;20607;-76
2023/05/17 12:22:07;;;;;;;4.63;1.73;;;16.10;75.60;;;;;;5075019;28;20207;-77
2023/05/17 12:24:39;;;;;;;3.83;1.77;;;16.80;70.50;;;;;;5075201;28;20203;-75
2023/05/17 12:27:07;;;;;;;5.30;1.57;;;16.90;72.10;;;;;;5075130;28;20238;-77
2023/05/17 12:29:37;;;;;;;3.07;1.60;;;16.30;64.10;;;;;;5075347;28;20231;-77
2023/05/17 12:32:07;;;;;;;2.87;1.43;;;16.80;68.00;;;;;;5075311;28;20207;-76
2023/05/17 12:34:36;;;;;;;3.50;1.30;;;17.10;67.10;;;;;;5075564;28;20678;-78
2023/05/17 12:37:08;;;;;;;3.27;1.57;;;16.60;66.00;;;;;;5075472;28;20582;-77
2023/05/17 12:39:37;;;;;;;3.43;1.70;;;17.20;72.90;;;;;;5082638;28;20224;-79
2023/05/17 12:42:06;;;;;;;3.13;1.60;;;17.10;68.60;;;;;;5088461;28;20207;-76
2023/05/17 12:44:37;;;;;;;1.90;1.37;;;17.20;69.40;;;;;;5091825;28;20199;-77
2023/05/17 12:47:05;;;;;;;3.33;1.80;;;16.90;63.90;;;;;;5098826;28;20187;-76
2023/05/17 12:49:38;;;;;;;3.17;1.97;;;17.40;66.80;;;;;;5078304;28;20547;-78
2023/05/17 12:52:07;;;;;;;2.10;1.77;;;17.30;68.20;;;;;;5075852;28;20211;-77
2023/05/17 12:54:36;;;;;;;4.87;1.83;;;17.30;63.60;;;;;;5093845;28;20235;-78
2023/05/17 12:57:12;;;;;;;4.17;2.10;;;17.10;71.50;;;;;;5085694;28;20214;-79
2023/05/17 12:59:49;;;;;;;3.77;2.00;;;16.60;69.00;;;;;;5074244;28;20284;-76
2023/05/17 13:02:19;;;;;;;4.10;2.20;;;16.20;70.20;;;;;;5074097;28;20207;-75